sensor_id;sensor_type;location;lat;lon;timestamp;P1;durP1;ratioP1;P2;durP2;ratioP2
26860;SDS011;37676;46.956;7.430;2022-07-04T00:01:57;0.70;;;0.35;;
26860;SDS011;37676;46.956;7.430;2022-07-04T00:04:22;0.63;;;0.40;;
26860;SDS011;37676;46.956;7.430;2022-07-04T00:06:47;1.25;;;0.52;;
26860;SDS011;37676;46.956;7.430;2022-07-04T00:09:13;0.77;;;0.40;;
26860;SDS011;37676;46.956;7.430;2022-07-04T00:11:38;1.23;;;0.50;;
26860;SDS011;37676;46.956;7.430;2022-07-04T00:14:03;1.15;;;0.57;;
26860;SDS011;37676;46.956;7.430;2022-07-04T00:16:29;0.85;;;0.50;;
26860;SDS011;37676;46.956;7.430;2022-07-04T00:18:54;0.75;;;0.35;;
26860;SDS011;37676;46.956;7.430;2022-07-04T00:21:19;0.77;;;0.40;;
26860;SDS011;37676;46.956;7.430;2022-07-04T00:23:45;0.60;;;0.38;;
26860;SDS011;37676;46.956;7.430;2022-07-04T00:26:10;0.75;;;0.40;;
26860;SDS011;37676;46.956;7.430;2022-07-04T00:28:35;0.90;;;0.40;;
26860;SDS011;37676;46.956;7.430;2022-07-04T00:31:01;1.67;;;0.45;;
26860;SDS011;37676;46.956;7.430;2022-07-04T00:33:26;1.90;;;0.55;;
26860;SDS011;37676;46.956;7.430;2022-07-04T00:35:51;1.65;;;0.70;;
26860;SDS011;37676;46.956;7.430;2022-07-04T00:38:17;0.70;;;0.47;;
26860;SDS011;37676;46.956;7.430;2022-07-04T00:40:42;0.93;;;0.60;;
26860;SDS011;37676;46.956;7.430;2022-07-04T00:43:07;1.60;;;0.80;;
26860;SDS011;37676;46.956;7.430;2022-07-04T00:45:33;1.38;;;0.50;;
26860;SDS011;37676;46.956;7.430;2022-07-04T00:47:58;1.20;;;0.60;;
26860;SDS011;37676;46.956;7.430;2022-07-04T00:50:24;1.83;;;0.88;;
26860;SDS011;37676;46.956;7.430;2022-07-04T00:52:50;0.90;;;0.47;;
26860;SDS011;37676;46.956;7.430;2022-07-04T00:55:18;3.85;;;1.35;;
26860;SDS011;37676;46.956;7.430;2022-07-04T00:57:44;2.78;;;1.40;;
26860;SDS011;37676;46.956;7.430;2022-07-04T01:00:09;3.43;;;1.30;;
26860;SDS011;37676;46.956;7.430;2022-07-04T01:02:35;3.35;;;1.30;;
26860;SDS011;37676;46.956;7.430;2022-07-04T01:05:00;2.58;;;1.20;;
26860;SDS011;37676;46.956;7.430;2022-07-04T01:07:25;1.98;;;0.98;;
26860;SDS011;37676;46.956;7.430;2022-07-04T01:09:51;2.97;;;0.80;;
26860;SDS011;37676;46.956;7.430;2022-07-04T01:12:24;3.67;;;1.10;;
26860;SDS011;37676;46.956;7.430;2022-07-04T01:14:59;2.03;;;0.77;;
26860;SDS011;37676;46.956;7.430;2022-07-04T01:17:24;3.17;;;0.80;;
26860;SDS011;37676;46.956;7.430;2022-07-04T01:19:50;1.65;;;0.63;;
26860;SDS011;37676;46.956;7.430;2022-07-04T01:22:15;0.80;;;0.40;;
26860;SDS011;37676;46.956;7.430;2022-07-04T01:24:41;0.57;;;0.30;;
26860;SDS011;37676;46.956;7.430;2022-07-04T01:27:06;1.20;;;0.50;;
26860;SDS011;37676;46.956;7.430;2022-07-04T01:29:31;2.58;;;1.10;;
26860;SDS011;37676;46.956;7.430;2022-07-04T01:32:02;1.48;;;0.70;;
26860;SDS011;37676;46.956;7.430;2022-07-04T01:34:29;1.05;;;0.40;;
26860;SDS011;37676;46.956;7.430;2022-07-04T01:36:54;1.25;;;0.50;;
26860;SDS011;37676;46.956;7.430;2022-07-04T01:39:19;1.60;;;0.60;;
26860;SDS011;37676;46.956;7.430;2022-07-04T01:41:44;1.88;;;0.82;;
26860;SDS011;37676;46.956;7.430;2022-07-04T01:44:10;3.00;;;0.95;;
26860;SDS011;37676;46.956;7.430;2022-07-04T01:46:35;2.00;;;0.80;;
26860;SDS011;37676;46.956;7.430;2022-07-04T01:49:00;2.40;;;0.80;;
26860;SDS011;37676;46.956;7.430;2022-07-04T01:51:26;1.90;;;0.70;;
26860;SDS011;37676;46.956;7.430;2022-07-04T01:53:51;1.08;;;0.52;;
26860;SDS011;37676;46.956;7.430;2022-07-04T01:56:16;0.68;;;0.30;;
26860;SDS011;37676;46.956;7.430;2022-07-04T01:58:42;0.77;;;0.35;;
26860;SDS011;37676;46.956;7.430;2022-07-04T02:01:07;0.70;;;0.30;;
26860;SDS011;37676;46.956;7.430;2022-07-04T02:03:51;0.60;;;0.30;;
26860;SDS011;37676;46.956;7.430;2022-07-04T02:06:16;0.70;;;0.30;;
26860;SDS011;37676;46.956;7.430;2022-07-04T02:08:41;1.67;;;0.43;;
26860;SDS011;37676;46.956;7.430;2022-07-04T02:11:25;0.88;;;0.45;;
26860;SDS011;37676;46.956;7.430;2022-07-04T02:13:50;0.50;;;0.40;;
26860;SDS011;37676;46.956;7.430;2022-07-04T02:16:15;1.83;;;0.65;;
26860;SDS011;37676;46.956;7.430;2022-07-04T02:18:41;0.50;;;0.30;;
26860;SDS011;37676;46.956;7.430;2022-07-04T02:21:06;1.20;;;0.50;;
26860;SDS011;37676;46.956;7.430;2022-07-04T02:23:31;0.70;;;0.40;;
26860;SDS011;37676;46.956;7.430;2022-07-04T02:25:57;0.70;;;0.50;;
26860;SDS011;37676;46.956;7.430;2022-07-04T02:28:22;1.33;;;0.60;;
26860;SDS011;37676;46.956;7.430;2022-07-04T02:30:47;0.80;;;0.40;;
26860;SDS011;37676;46.956;7.430;2022-07-04T02:33:13;1.48;;;0.50;;
26860;SDS011;37676;46.956;7.430;2022-07-04T02:35:38;0.93;;;0.47;;
26860;SDS011;37676;46.956;7.430;2022-07-04T02:38:03;1.08;;;0.50;;
26860;SDS011;37676;46.956;7.430;2022-07-04T02:40:29;1.13;;;0.50;;
26860;SDS011;37676;46.956;7.430;2022-07-04T02:42:54;0.87;;;0.47;;
26860;SDS011;37676;46.956;7.430;2022-07-04T02:45:19;1.67;;;0.73;;
26860;SDS011;37676;46.956;7.430;2022-07-04T02:47:44;1.53;;;0.70;;
26860;SDS011;37676;46.956;7.430;2022-07-04T02:50:10;1.53;;;0.73;;
26860;SDS011;37676;46.956;7.430;2022-07-04T02:52:35;1.73;;;0.60;;
26860;SDS011;37676;46.956;7.430;2022-07-04T02:55:00;1.50;;;0.50;;
26860;SDS011;37676;46.956;7.430;2022-07-04T02:57:26;0.88;;;0.50;;
26860;SDS011;37676;46.956;7.430;2022-07-04T02:59:52;0.43;;;0.30;;
26860;SDS011;37676;46.956;7.430;2022-07-04T03:02:17;1.25;;;0.57;;
26860;SDS011;37676;46.956;7.430;2022-07-04T03:04:42;1.05;;;0.50;;
26860;SDS011;37676;46.956;7.430;2022-07-04T03:07:09;0.60;;;0.40;;
26860;SDS011;37676;46.956;7.430;2022-07-04T03:09:34;1.98;;;0.60;;
26860;SDS011;37676;46.956;7.430;2022-07-04T03:12:00;1.35;;;0.50;;
26860;SDS011;37676;46.956;7.430;2022-07-04T03:14:25;1.27;;;0.57;;
26860;SDS011;37676;46.956;7.430;2022-07-04T03:16:50;1.23;;;0.50;;
26860;SDS011;37676;46.956;7.430;2022-07-04T03:19:16;1.45;;;0.50;;
26860;SDS011;37676;46.956;7.430;2022-07-04T03:21:42;0.90;;;0.40;;
26860;SDS011;37676;46.956;7.430;2022-07-04T03:24:08;1.00;;;0.40;;
26860;SDS011;37676;46.956;7.430;2022-07-04T03:26:34;1.17;;;0.52;;
26860;SDS011;37676;46.956;7.430;2022-07-04T03:29:00;1.10;;;0.52;;
26860;SDS011;37676;46.956;7.430;2022-07-04T03:31:26;1.05;;;0.50;;
26860;SDS011;37676;46.956;7.430;2022-07-04T03:33:52;1.10;;;0.50;;
26860;SDS011;37676;46.956;7.430;2022-07-04T03:36:18;1.13;;;0.38;;
26860;SDS011;37676;46.956;7.430;2022-07-04T03:38:44;1.88;;;0.93;;
26860;SDS011;37676;46.956;7.430;2022-07-04T03:41:09;1.50;;;0.70;;
26860;SDS011;37676;46.956;7.430;2022-07-04T03:43:34;1.50;;;0.70;;
26860;SDS011;37676;46.956;7.430;2022-07-04T03:46:00;2.42;;;1.20;;
26860;SDS011;37676;46.956;7.430;2022-07-04T03:48:25;2.40;;;1.10;;
26860;SDS011;37676;46.956;7.430;2022-07-04T03:50:50;2.60;;;1.00;;
26860;SDS011;37676;46.956;7.430;2022-07-04T03:53:16;2.25;;;0.82;;
26860;SDS011;37676;46.956;7.430;2022-07-04T03:55:41;2.40;;;1.05;;
26860;SDS011;37676;46.956;7.430;2022-07-04T03:58:07;2.97;;;0.70;;
26860;SDS011;37676;46.956;7.430;2022-07-04T04:00:32;1.38;;;0.50;;
26860;SDS011;37676;46.956;7.430;2022-07-04T04:02:58;1.45;;;0.43;;
26860;SDS011;37676;46.956;7.430;2022-07-04T04:05:24;0.60;;;0.30;;
26860;SDS011;37676;46.956;7.430;2022-07-04T04:07:53;0.80;;;0.40;;
26860;SDS011;37676;46.956;7.430;2022-07-04T04:10:19;0.60;;;0.30;;
26860;SDS011;37676;46.956;7.430;2022-07-04T04:12:45;0.73;;;0.40;;
26860;SDS011;37676;46.956;7.430;2022-07-04T04:15:10;1.60;;;0.50;;
26860;SDS011;37676;46.956;7.430;2022-07-04T04:17:35;1.27;;;0.47;;
26860;SDS011;37676;46.956;7.430;2022-07-04T04:20:01;1.87;;;0.60;;
26860;SDS011;37676;46.956;7.430;2022-07-04T04:22:29;1.55;;;0.80;;
26860;SDS011;37676;46.956;7.430;2022-07-04T04:24:55;1.23;;;0.60;;
26860;SDS011;37676;46.956;7.430;2022-07-04T04:27:20;1.75;;;0.63;;
26860;SDS011;37676;46.956;7.430;2022-07-04T04:29:45;1.47;;;0.57;;
26860;SDS011;37676;46.956;7.430;2022-07-04T04:32:11;1.83;;;0.75;;
26860;SDS011;37676;46.956;7.430;2022-07-04T04:34:36;1.75;;;0.80;;
26860;SDS011;37676;46.956;7.430;2022-07-04T04:37:02;4.38;;;1.00;;
26860;SDS011;37676;46.956;7.430;2022-07-04T04:39:28;2.13;;;0.90;;
26860;SDS011;37676;46.956;7.430;2022-07-04T04:41:53;2.08;;;1.00;;
26860;SDS011;37676;46.956;7.430;2022-07-04T04:44:18;1.33;;;0.70;;
26860;SDS011;37676;46.956;7.430;2022-07-04T04:46:44;1.30;;;0.63;;
26860;SDS011;37676;46.956;7.430;2022-07-04T04:49:10;1.27;;;0.60;;
26860;SDS011;37676;46.956;7.430;2022-07-04T04:51:35;0.70;;;0.50;;
26860;SDS011;37676;46.956;7.430;2022-07-04T04:54:01;0.70;;;0.40;;
26860;SDS011;37676;46.956;7.430;2022-07-04T04:56:27;1.00;;;0.50;;
26860;SDS011;37676;46.956;7.430;2022-07-04T04:58:52;1.48;;;0.50;;
26860;SDS011;37676;46.956;7.430;2022-07-04T05:01:17;0.63;;;0.35;;
26860;SDS011;37676;46.956;7.430;2022-07-04T05:03:43;0.93;;;0.50;;
26860;SDS011;37676;46.956;7.430;2022-07-04T05:06:08;2.05;;;0.80;;
26860;SDS011;37676;46.956;7.430;2022-07-04T05:08:34;0.88;;;0.40;;
26860;SDS011;37676;46.956;7.430;2022-07-04T05:10:59;1.13;;;0.60;;
26860;SDS011;37676;46.956;7.430;2022-07-04T05:13:25;0.55;;;0.30;;
26860;SDS011;37676;46.956;7.430;2022-07-04T05:15:50;0.98;;;0.43;;
26860;SDS011;37676;46.956;7.430;2022-07-04T05:18:16;0.50;;;0.32;;
26860;SDS011;37676;46.956;7.430;2022-07-04T05:20:41;1.08;;;0.50;;
26860;SDS011;37676;46.956;7.430;2022-07-04T05:23:07;1.05;;;0.50;;
26860;SDS011;37676;46.956;7.430;2022-07-04T05:25:32;1.10;;;0.55;;
26860;SDS011;37676;46.956;7.430;2022-07-04T05:27:57;1.08;;;0.50;;
26860;SDS011;37676;46.956;7.430;2022-07-04T05:30:23;0.70;;;0.40;;
26860;SDS011;37676;46.956;7.430;2022-07-04T05:32:49;0.95;;;0.50;;
26860;SDS011;37676;46.956;7.430;2022-07-04T05:35:14;1.80;;;0.80;;
26860;SDS011;37676;46.956;7.430;2022-07-04T05:37:39;2.90;;;1.08;;
26860;SDS011;37676;46.956;7.430;2022-07-04T05:40:05;1.40;;;0.77;;
26860;SDS011;37676;46.956;7.430;2022-07-04T05:42:30;2.00;;;0.70;;
26860;SDS011;37676;46.956;7.430;2022-07-04T05:44:56;1.63;;;0.60;;
26860;SDS011;37676;46.956;7.430;2022-07-04T05:47:21;1.45;;;0.80;;
26860;SDS011;37676;46.956;7.430;2022-07-04T05:49:50;1.95;;;0.70;;
26860;SDS011;37676;46.956;7.430;2022-07-04T05:52:16;1.73;;;0.70;;
26860;SDS011;37676;46.956;7.430;2022-07-04T05:54:41;0.85;;;0.50;;
26860;SDS011;37676;46.956;7.430;2022-07-04T05:57:06;1.27;;;0.60;;
26860;SDS011;37676;46.956;7.430;2022-07-04T05:59:32;2.05;;;0.80;;
26860;SDS011;37676;46.956;7.430;2022-07-04T06:01:57;1.75;;;0.90;;
26860;SDS011;37676;46.956;7.430;2022-07-04T06:04:22;1.90;;;0.90;;
26860;SDS011;37676;46.956;7.430;2022-07-04T06:06:47;1.38;;;0.75;;
26860;SDS011;37676;46.956;7.430;2022-07-04T06:09:13;1.33;;;0.70;;
26860;SDS011;37676;46.956;7.430;2022-07-04T06:11:38;1.85;;;0.80;;
26860;SDS011;37676;46.956;7.430;2022-07-04T06:14:03;2.45;;;1.20;;
26860;SDS011;37676;46.956;7.430;2022-07-04T06:16:29;1.20;;;0.55;;
26860;SDS011;37676;46.956;7.430;2022-07-04T06:18:54;1.45;;;0.63;;
26860;SDS011;37676;46.956;7.430;2022-07-04T06:21:20;0.77;;;0.50;;
26860;SDS011;37676;46.956;7.430;2022-07-04T06:23:45;2.25;;;1.02;;
26860;SDS011;37676;46.956;7.430;2022-07-04T06:26:11;1.77;;;0.70;;
26860;SDS011;37676;46.956;7.430;2022-07-04T06:28:36;1.35;;;0.50;;
26860;SDS011;37676;46.956;7.430;2022-07-04T06:31:02;1.65;;;0.70;;
26860;SDS011;37676;46.956;7.430;2022-07-04T06:33:27;0.73;;;0.40;;
26860;SDS011;37676;46.956;7.430;2022-07-04T06:35:53;3.53;;;1.60;;
26860;SDS011;37676;46.956;7.430;2022-07-04T06:38:29;6.72;;;1.67;;
26860;SDS011;37676;46.956;7.430;2022-07-04T06:40:56;3.65;;;1.60;;
26860;SDS011;37676;46.956;7.430;2022-07-04T06:43:22;3.72;;;1.60;;
26860;SDS011;37676;46.956;7.430;2022-07-04T06:45:48;3.13;;;1.45;;
26860;SDS011;37676;46.956;7.430;2022-07-04T06:48:13;1.88;;;0.90;;
26860;SDS011;37676;46.956;7.430;2022-07-04T06:50:39;1.70;;;0.70;;
26860;SDS011;37676;46.956;7.430;2022-07-04T06:53:05;3.50;;;1.65;;
26860;SDS011;37676;46.956;7.430;2022-07-04T06:55:32;3.40;;;1.60;;
26860;SDS011;37676;46.956;7.430;2022-07-04T06:57:57;2.55;;;0.90;;
26860;SDS011;37676;46.956;7.430;2022-07-04T07:00:23;1.90;;;1.10;;
26860;SDS011;37676;46.956;7.430;2022-07-04T07:02:49;2.20;;;1.00;;
26860;SDS011;37676;46.956;7.430;2022-07-04T07:05:14;1.92;;;0.95;;
26860;SDS011;37676;46.956;7.430;2022-07-04T07:07:40;1.50;;;0.82;;
26860;SDS011;37676;46.956;7.430;2022-07-04T07:10:06;1.83;;;0.95;;
26860;SDS011;37676;46.956;7.430;2022-07-04T07:12:32;1.83;;;0.85;;
26860;SDS011;37676;46.956;7.430;2022-07-04T07:14:58;1.80;;;0.70;;
26860;SDS011;37676;46.956;7.430;2022-07-04T07:17:24;1.42;;;0.60;;
26860;SDS011;37676;46.956;7.430;2022-07-04T07:19:50;1.75;;;0.80;;
26860;SDS011;37676;46.956;7.430;2022-07-04T07:22:15;1.35;;;0.70;;
26860;SDS011;37676;46.956;7.430;2022-07-04T07:24:41;1.63;;;0.70;;
26860;SDS011;37676;46.956;7.430;2022-07-04T07:27:07;1.50;;;0.80;;
26860;SDS011;37676;46.956;7.430;2022-07-04T07:29:33;1.25;;;0.70;;
26860;SDS011;37676;46.956;7.430;2022-07-04T07:31:59;1.50;;;0.70;;
26860;SDS011;37676;46.956;7.430;2022-07-04T07:34:24;1.35;;;0.50;;
26860;SDS011;37676;46.956;7.430;2022-07-04T07:36:50;0.68;;;0.43;;
26860;SDS011;37676;46.956;7.430;2022-07-04T07:39:16;1.33;;;0.50;;
26860;SDS011;37676;46.956;7.430;2022-07-04T07:41:41;1.00;;;0.60;;
26860;SDS011;37676;46.956;7.430;2022-07-04T07:44:07;1.55;;;0.70;;
26860;SDS011;37676;46.956;7.430;2022-07-04T07:46:32;1.48;;;0.65;;
26860;SDS011;37676;46.956;7.430;2022-07-04T07:48:58;1.00;;;0.55;;
26860;SDS011;37676;46.956;7.430;2022-07-04T07:51:24;1.63;;;0.70;;
26860;SDS011;37676;46.956;7.430;2022-07-04T07:53:49;0.80;;;0.40;;
26860;SDS011;37676;46.956;7.430;2022-07-04T07:56:15;0.90;;;0.50;;
26860;SDS011;37676;46.956;7.430;2022-07-04T07:58:40;0.90;;;0.40;;
26860;SDS011;37676;46.956;7.430;2022-07-04T08:01:05;0.97;;;0.60;;
26860;SDS011;37676;46.956;7.430;2022-07-04T08:03:31;0.77;;;0.47;;
26860;SDS011;37676;46.956;7.430;2022-07-04T08:06:15;1.80;;;0.60;;
26860;SDS011;37676;46.956;7.430;2022-07-04T08:08:41;1.25;;;0.70;;
26860;SDS011;37676;46.956;7.430;2022-07-04T08:11:07;1.25;;;0.60;;
26860;SDS011;37676;46.956;7.430;2022-07-04T08:13:33;2.42;;;0.90;;
26860;SDS011;37676;46.956;7.430;2022-07-04T08:15:59;2.28;;;0.90;;
26860;SDS011;37676;46.956;7.430;2022-07-04T08:18:24;1.65;;;0.68;;
26860;SDS011;37676;46.956;7.430;2022-07-04T08:20:50;1.25;;;0.70;;
26860;SDS011;37676;46.956;7.430;2022-07-04T08:23:16;1.02;;;0.57;;
26860;SDS011;37676;46.956;7.430;2022-07-04T08:25:41;0.80;;;0.50;;
26860;SDS011;37676;46.956;7.430;2022-07-04T08:28:07;1.00;;;0.50;;
26860;SDS011;37676;46.956;7.430;2022-07-04T08:30:32;1.30;;;0.63;;
26860;SDS011;37676;46.956;7.430;2022-07-04T08:32:58;1.42;;;0.70;;
26860;SDS011;37676;46.956;7.430;2022-07-04T08:35:23;2.03;;;1.00;;
26860;SDS011;37676;46.956;7.430;2022-07-04T08:37:48;2.55;;;1.30;;
26860;SDS011;37676;46.956;7.430;2022-07-04T08:40:18;7.47;;;4.85;;
26860;SDS011;37676;46.956;7.430;2022-07-04T08:42:45;4.15;;;2.75;;
26860;SDS011;37676;46.956;7.430;2022-07-04T08:45:11;4.20;;;1.70;;
26860;SDS011;37676;46.956;7.430;2022-07-04T08:47:39;2.45;;;1.30;;
26860;SDS011;37676;46.956;7.430;2022-07-04T08:50:21;2.50;;;1.42;;
26860;SDS011;37676;46.956;7.430;2022-07-04T08:52:59;2.83;;;1.30;;
26860;SDS011;37676;46.956;7.430;2022-07-04T08:55:27;18.10;;;15.52;;
26860;SDS011;37676;46.956;7.430;2022-07-04T08:58:11;19.08;;;15.80;;
26860;SDS011;37676;46.956;7.430;2022-07-04T09:03:23;5.75;;;4.00;;
26860;SDS011;37676;46.956;7.430;2022-07-04T09:05:48;4.90;;;2.95;;
26860;SDS011;37676;46.956;7.430;2022-07-04T09:08:14;2.90;;;1.80;;
26860;SDS011;37676;46.956;7.430;2022-07-04T09:10:40;2.63;;;1.20;;
26860;SDS011;37676;46.956;7.430;2022-07-04T09:13:06;2.10;;;0.93;;
26860;SDS011;37676;46.956;7.430;2022-07-04T09:15:32;1.98;;;0.80;;
26860;SDS011;37676;46.956;7.430;2022-07-04T09:17:58;1.80;;;1.00;;
26860;SDS011;37676;46.956;7.430;2022-07-04T09:20:25;3.03;;;1.02;;
26860;SDS011;37676;46.956;7.430;2022-07-04T09:22:53;1.45;;;0.80;;
26860;SDS011;37676;46.956;7.430;2022-07-04T09:25:20;2.60;;;1.38;;
26860;SDS011;37676;46.956;7.430;2022-07-04T09:27:53;4.00;;;1.35;;
26860;SDS011;37676;46.956;7.430;2022-07-04T09:30:22;2.70;;;1.08;;
26860;SDS011;37676;46.956;7.430;2022-07-04T09:32:52;1.40;;;0.77;;
26860;SDS011;37676;46.956;7.430;2022-07-04T09:35:25;3.80;;;1.83;;
26860;SDS011;37676;46.956;7.430;2022-07-04T09:37:53;2.85;;;1.50;;
26860;SDS011;37676;46.956;7.430;2022-07-04T09:42:49;4.25;;;1.90;;
26860;SDS011;37676;46.956;7.430;2022-07-04T09:45:15;2.38;;;1.40;;
26860;SDS011;37676;46.956;7.430;2022-07-04T09:47:43;1.27;;;0.75;;
26860;SDS011;37676;46.956;7.430;2022-07-04T09:50:12;2.63;;;1.40;;
26860;SDS011;37676;46.956;7.430;2022-07-04T09:52:56;2.47;;;1.08;;
26860;SDS011;37676;46.956;7.430;2022-07-04T09:55:33;3.97;;;1.00;;
26860;SDS011;37676;46.956;7.430;2022-07-04T09:58:00;2.92;;;1.20;;
26860;SDS011;37676;46.956;7.430;2022-07-04T10:00:36;2.85;;;1.13;;
26860;SDS011;37676;46.956;7.430;2022-07-04T10:03:16;1.65;;;1.00;;
26860;SDS011;37676;46.956;7.430;2022-07-04T10:05:46;2.22;;;0.90;;
26860;SDS011;37676;46.956;7.430;2022-07-04T10:08:25;1.83;;;1.20;;
26860;SDS011;37676;46.956;7.430;2022-07-04T10:10:51;2.22;;;0.77;;
26860;SDS011;37676;46.956;7.430;2022-07-04T10:13:21;1.02;;;0.60;;
26860;SDS011;37676;46.956;7.430;2022-07-04T10:15:47;1.52;;;0.68;;
26860;SDS011;37676;46.956;7.430;2022-07-04T10:18:13;2.45;;;0.70;;
26860;SDS011;37676;46.956;7.430;2022-07-04T10:20:42;1.20;;;0.68;;
26860;SDS011;37676;46.956;7.430;2022-07-04T10:23:07;1.10;;;0.63;;
26860;SDS011;37676;46.956;7.430;2022-07-04T10:25:33;1.55;;;0.70;;
26860;SDS011;37676;46.956;7.430;2022-07-04T10:28:00;2.15;;;0.85;;
26860;SDS011;37676;46.956;7.430;2022-07-04T10:30:26;1.30;;;0.77;;
26860;SDS011;37676;46.956;7.430;2022-07-04T10:32:54;0.98;;;0.52;;
26860;SDS011;37676;46.956;7.430;2022-07-04T10:38:19;0.93;;;0.52;;
26860;SDS011;37676;46.956;7.430;2022-07-04T10:40:50;1.20;;;0.55;;
26860;SDS011;37676;46.956;7.430;2022-07-04T10:51:43;1.70;;;0.80;;
26860;SDS011;37676;46.956;7.430;2022-07-04T10:54:16;2.30;;;1.00;;
26860;SDS011;37676;46.956;7.430;2022-07-04T11:07:13;1.00;;;0.57;;
26860;SDS011;37676;46.956;7.430;2022-07-04T11:09:46;0.73;;;0.43;;
26860;SDS011;37676;46.956;7.430;2022-07-04T11:12:31;1.30;;;0.70;;
26860;SDS011;37676;46.956;7.430;2022-07-04T11:14:56;0.75;;;0.50;;
26860;SDS011;37676;46.956;7.430;2022-07-04T11:17:28;0.93;;;0.47;;
26860;SDS011;37676;46.956;7.430;2022-07-04T11:20:04;1.23;;;0.50;;
26860;SDS011;37676;46.956;7.430;2022-07-04T11:22:32;1.17;;;0.60;;
26860;SDS011;37676;46.956;7.430;2022-07-04T11:24:58;1.17;;;0.68;;
26860;SDS011;37676;46.956;7.430;2022-07-04T11:27:23;0.73;;;0.40;;
26860;SDS011;37676;46.956;7.430;2022-07-04T11:29:52;1.75;;;0.70;;
26860;SDS011;37676;46.956;7.430;2022-07-04T11:32:19;0.95;;;0.50;;
26860;SDS011;37676;46.956;7.430;2022-07-04T11:34:45;0.88;;;0.50;;
26860;SDS011;37676;46.956;7.430;2022-07-04T11:37:11;1.15;;;0.60;;
26860;SDS011;37676;46.956;7.430;2022-07-04T11:39:37;2.10;;;1.00;;
26860;SDS011;37676;46.956;7.430;2022-07-04T11:42:03;1.13;;;0.60;;
26860;SDS011;37676;46.956;7.430;2022-07-04T11:44:47;1.60;;;0.70;;
26860;SDS011;37676;46.956;7.430;2022-07-04T11:47:40;2.08;;;1.17;;
26860;SDS011;37676;46.956;7.430;2022-07-04T11:50:08;1.55;;;0.82;;
26860;SDS011;37676;46.956;7.430;2022-07-04T11:52:39;0.98;;;0.60;;
26860;SDS011;37676;46.956;7.430;2022-07-04T11:55:07;1.73;;;0.60;;
26860;SDS011;37676;46.956;7.430;2022-07-04T11:57:44;1.20;;;0.60;;
26860;SDS011;37676;46.956;7.430;2022-07-04T12:00:12;1.52;;;0.50;;
26860;SDS011;37676;46.956;7.430;2022-07-04T12:02:42;1.30;;;0.80;;
26860;SDS011;37676;46.956;7.430;2022-07-04T12:05:09;1.17;;;0.55;;
26860;SDS011;37676;46.956;7.430;2022-07-04T12:07:37;0.70;;;0.40;;
26860;SDS011;37676;46.956;7.430;2022-07-04T12:10:12;1.35;;;0.60;;
26860;SDS011;37676;46.956;7.430;2022-07-04T12:12:54;0.90;;;0.50;;
26860;SDS011;37676;46.956;7.430;2022-07-04T12:15:20;1.50;;;0.73;;
26860;SDS011;37676;46.956;7.430;2022-07-04T12:17:54;1.48;;;0.70;;
26860;SDS011;37676;46.956;7.430;2022-07-04T12:20:23;1.05;;;0.50;;
26860;SDS011;37676;46.956;7.430;2022-07-04T12:25:23;0.90;;;0.50;;
26860;SDS011;37676;46.956;7.430;2022-07-04T12:27:57;1.33;;;0.55;;
26860;SDS011;37676;46.956;7.430;2022-07-04T12:30:27;1.48;;;0.60;;
26860;SDS011;37676;46.956;7.430;2022-07-04T12:33:01;2.33;;;1.10;;
26860;SDS011;37676;46.956;7.430;2022-07-04T12:35:31;1.10;;;0.70;;
26860;SDS011;37676;46.956;7.430;2022-07-04T12:38:21;0.90;;;0.60;;
26860;SDS011;37676;46.956;7.430;2022-07-04T12:43:16;1.00;;;0.57;;
26860;SDS011;37676;46.956;7.430;2022-07-04T12:45:42;1.40;;;0.68;;
26860;SDS011;37676;46.956;7.430;2022-07-04T12:48:16;1.23;;;0.60;;
26860;SDS011;37676;46.956;7.430;2022-07-04T12:50:43;2.72;;;1.45;;
26860;SDS011;37676;46.956;7.430;2022-07-04T12:53:08;2.90;;;1.15;;
26860;SDS011;37676;46.956;7.430;2022-07-04T12:55:34;3.03;;;0.98;;
26860;SDS011;37676;46.956;7.430;2022-07-04T12:58:03;3.60;;;1.52;;
26860;SDS011;37676;46.956;7.430;2022-07-04T13:00:30;3.47;;;1.60;;
26860;SDS011;37676;46.956;7.430;2022-07-04T13:02:55;2.85;;;1.40;;
26860;SDS011;37676;46.956;7.430;2022-07-04T13:05:20;4.03;;;2.70;;
26860;SDS011;37676;46.956;7.430;2022-07-04T13:07:46;2.00;;;1.15;;
26860;SDS011;37676;46.956;7.430;2022-07-04T13:10:11;1.33;;;0.63;;
26860;SDS011;37676;46.956;7.430;2022-07-04T13:12:37;1.92;;;0.60;;
26860;SDS011;37676;46.956;7.430;2022-07-04T13:15:02;1.10;;;0.43;;
26860;SDS011;37676;46.956;7.430;2022-07-04T13:17:29;1.40;;;0.70;;
26860;SDS011;37676;46.956;7.430;2022-07-04T13:19:56;1.45;;;0.60;;
26860;SDS011;37676;46.956;7.430;2022-07-04T13:22:21;1.10;;;0.60;;
26860;SDS011;37676;46.956;7.430;2022-07-04T13:24:48;1.42;;;0.40;;
26860;SDS011;37676;46.956;7.430;2022-07-04T13:27:14;0.43;;;0.30;;
26860;SDS011;37676;46.956;7.430;2022-07-04T13:29:40;0.88;;;0.40;;
26860;SDS011;37676;46.956;7.430;2022-07-04T13:32:06;0.60;;;0.40;;
26860;SDS011;37676;46.956;7.430;2022-07-04T13:34:31;0.93;;;0.47;;
26860;SDS011;37676;46.956;7.430;2022-07-04T13:36:57;1.02;;;0.25;;
26860;SDS011;37676;46.956;7.430;2022-07-04T13:39:23;0.50;;;0.30;;
26860;SDS011;37676;46.956;7.430;2022-07-04T13:41:48;0.65;;;0.40;;
26860;SDS011;37676;46.956;7.430;2022-07-04T13:44:14;0.95;;;0.50;;
26860;SDS011;37676;46.956;7.430;2022-07-04T13:46:40;0.63;;;0.32;;
26860;SDS011;37676;46.956;7.430;2022-07-04T13:49:07;0.60;;;0.30;;
26860;SDS011;37676;46.956;7.430;2022-07-04T13:51:32;1.37;;;0.40;;
26860;SDS011;37676;46.956;7.430;2022-07-04T13:53:58;0.85;;;0.40;;
26860;SDS011;37676;46.956;7.430;2022-07-04T13:56:23;0.70;;;0.40;;
26860;SDS011;37676;46.956;7.430;2022-07-04T13:58:48;1.55;;;0.40;;
26860;SDS011;37676;46.956;7.430;2022-07-04T14:01:14;1.23;;;0.50;;
26860;SDS011;37676;46.956;7.430;2022-07-04T14:03:42;2.35;;;0.40;;
26860;SDS011;37676;46.956;7.430;2022-07-04T14:06:08;0.73;;;0.40;;
26860;SDS011;37676;46.956;7.430;2022-07-04T14:08:34;1.35;;;0.50;;
26860;SDS011;37676;46.956;7.430;2022-07-04T14:11:00;2.85;;;0.75;;
26860;SDS011;37676;46.956;7.430;2022-07-04T14:13:25;1.08;;;0.43;;
26860;SDS011;37676;46.956;7.430;2022-07-04T14:15:51;0.60;;;0.40;;
26860;SDS011;37676;46.956;7.430;2022-07-04T14:18:17;1.45;;;0.40;;
26860;SDS011;37676;46.956;7.430;2022-07-04T14:20:42;1.08;;;0.55;;
26860;SDS011;37676;46.956;7.430;2022-07-04T14:23:08;0.80;;;0.40;;
26860;SDS011;37676;46.956;7.430;2022-07-04T14:25:33;0.73;;;0.38;;
26860;SDS011;37676;46.956;7.430;2022-07-04T14:27:59;1.13;;;0.50;;
26860;SDS011;37676;46.956;7.430;2022-07-04T14:30:24;0.75;;;0.40;;
26860;SDS011;37676;46.956;7.430;2022-07-04T14:32:50;0.50;;;0.30;;
26860;SDS011;37676;46.956;7.430;2022-07-04T14:35:15;0.60;;;0.40;;
26860;SDS011;37676;46.956;7.430;2022-07-04T14:37:41;1.10;;;0.60;;
26860;SDS011;37676;46.956;7.430;2022-07-04T14:40:07;0.70;;;0.40;;
26860;SDS011;37676;46.956;7.430;2022-07-04T14:42:32;0.95;;;0.40;;
26860;SDS011;37676;46.956;7.430;2022-07-04T14:44:58;0.75;;;0.40;;
26860;SDS011;37676;46.956;7.430;2022-07-04T14:47:23;0.80;;;0.43;;
26860;SDS011;37676;46.956;7.430;2022-07-04T14:49:48;1.35;;;0.70;;
26860;SDS011;37676;46.956;7.430;2022-07-04T14:52:14;1.07;;;0.43;;
26860;SDS011;37676;46.956;7.430;2022-07-04T14:54:39;2.60;;;0.63;;
26860;SDS011;37676;46.956;7.430;2022-07-04T14:57:05;1.27;;;0.47;;
26860;SDS011;37676;46.956;7.430;2022-07-04T14:59:32;0.68;;;0.40;;
26860;SDS011;37676;46.956;7.430;2022-07-04T15:02:00;0.90;;;0.60;;
26860;SDS011;37676;46.956;7.430;2022-07-04T15:04:26;0.60;;;0.30;;
26860;SDS011;37676;46.956;7.430;2022-07-04T15:06:52;0.55;;;0.30;;
26860;SDS011;37676;46.956;7.430;2022-07-04T15:09:17;1.48;;;0.50;;
26860;SDS011;37676;46.956;7.430;2022-07-04T15:11:43;0.73;;;0.40;;
26860;SDS011;37676;46.956;7.430;2022-07-04T15:14:12;1.02;;;0.50;;
26860;SDS011;37676;46.956;7.430;2022-07-04T15:16:37;1.20;;;0.40;;
26860;SDS011;37676;46.956;7.430;2022-07-04T15:19:03;1.85;;;0.55;;